sensor_id;sensor_type;location;lat;lon;timestamp;P1;durP1;ratioP1;P2;durP2;ratioP2
3257;SDS011;1641;51.306;12.384;2023-12-20T00:02:17;8.25;;;5.47;;
3257;SDS011;1641;51.306;12.384;2023-12-20T00:04:42;6.50;;;4.38;;
3257;SDS011;1641;51.306;12.384;2023-12-20T00:07:07;7.15;;;4.60;;
3257;SDS011;1641;51.306;12.384;2023-12-20T00:09:33;4.32;;;3.55;;
3257;SDS011;1641;51.306;12.384;2023-12-20T00:11:58;6.70;;;4.15;;
3257;SDS011;1641;51.306;12.384;2023-12-20T00:14:23;5.47;;;3.97;;
3257;SDS011;1641;51.306;12.384;2023-12-20T00:16:48;6.35;;;3.58;;
3257;SDS011;1641;51.306;12.384;2023-12-20T00:19:14;5.03;;;4.13;;
3257;SDS011;1641;51.306;12.384;2023-12-20T00:21:39;4.28;;;3.33;;
3257;SDS011;1641;51.306;12.384;2023-12-20T00:24:04;4.80;;;4.22;;
3257;SDS011;1641;51.306;12.384;2023-12-20T00:26:30;4.68;;;3.30;;
3257;SDS011;1641;51.306;12.384;2023-12-20T00:28:55;5.93;;;3.33;;
3257;SDS011;1641;51.306;12.384;2023-12-20T00:31:20;4.18;;;2.88;;
3257;SDS011;1641;51.306;12.384;2023-12-20T00:33:46;14.23;;;3.83;;
3257;SDS011;1641;51.306;12.384;2023-12-20T00:36:12;4.30;;;3.45;;
3257;SDS011;1641;51.306;12.384;2023-12-20T00:38:37;4.25;;;3.45;;
3257;SDS011;1641;51.306;12.384;2023-12-20T00:41:02;5.93;;;2.92;;
3257;SDS011;1641;51.306;12.384;2023-12-20T00:43:28;4.57;;;2.97;;
3257;SDS011;1641;51.306;12.384;2023-12-20T00:45:53;5.18;;;2.80;;
3257;SDS011;1641;51.306;12.384;2023-12-20T00:48:18;3.80;;;2.80;;
3257;SDS011;1641;51.306;12.384;2023-12-20T00:50:47;3.22;;;2.60;;
3257;SDS011;1641;51.306;12.384;2023-12-20T00:53:12;4.60;;;2.92;;
3257;SDS011;1641;51.306;12.384;2023-12-20T00:55:37;2.53;;;2.33;;
3257;SDS011;1641;51.306;12.384;2023-12-20T00:58:03;3.72;;;3.00;;
3257;SDS011;1641;51.306;12.384;2023-12-20T01:00:28;2.85;;;2.30;;
3257;SDS011;1641;51.306;12.384;2023-12-20T01:02:53;2.75;;;2.40;;
3257;SDS011;1641;51.306;12.384;2023-12-20T01:05:19;3.03;;;2.10;;
3257;SDS011;1641;51.306;12.384;2023-12-20T01:07:47;3.72;;;2.47;;
3257;SDS011;1641;51.306;12.384;2023-12-20T01:10:12;2.65;;;2.45;;
3257;SDS011;1641;51.306;12.384;2023-12-20T01:12:37;2.63;;;2.15;;
3257;SDS011;1641;51.306;12.384;2023-12-20T01:15:03;3.10;;;2.53;;
3257;SDS011;1641;51.306;12.384;2023-12-20T01:17:28;3.05;;;2.30;;
3257;SDS011;1641;51.306;12.384;2023-12-20T01:19:53;3.38;;;2.85;;
3257;SDS011;1641;51.306;12.384;2023-12-20T01:22:22;3.35;;;2.45;;
3257;SDS011;1641;51.306;12.384;2023-12-20T01:24:47;2.50;;;2.30;;
3257;SDS011;1641;51.306;12.384;2023-12-20T01:27:12;2.58;;;2.00;;
3257;SDS011;1641;51.306;12.384;2023-12-20T01:29:37;2.75;;;2.20;;
3257;SDS011;1641;51.306;12.384;2023-12-20T01:32:03;3.38;;;2.30;;
3257;SDS011;1641;51.306;12.384;2023-12-20T01:34:29;2.70;;;2.30;;
3257;SDS011;1641;51.306;12.384;2023-12-20T01:36:54;4.07;;;2.55;;
3257;SDS011;1641;51.306;12.384;2023-12-20T01:39:19;2.00;;;1.70;;
3257;SDS011;1641;51.306;12.384;2023-12-20T01:41:44;2.05;;;1.85;;
3257;SDS011;1641;51.306;12.384;2023-12-20T01:44:10;2.97;;;1.85;;
3257;SDS011;1641;51.306;12.384;2023-12-20T01:46:39;4.78;;;2.30;;
3257;SDS011;1641;51.306;12.384;2023-12-20T01:49:04;2.40;;;1.90;;
3257;SDS011;1641;51.306;12.384;2023-12-20T01:51:36;2.00;;;1.70;;
3257;SDS011;1641;51.306;12.384;2023-12-20T01:54:05;3.33;;;1.88;;
3257;SDS011;1641;51.306;12.384;2023-12-20T01:56:31;2.10;;;1.70;;
3257;SDS011;1641;51.306;12.384;2023-12-20T01:58:57;2.03;;;1.90;;
3257;SDS011;1641;51.306;12.384;2023-12-20T02:01:23;3.15;;;2.00;;
3257;SDS011;1641;51.306;12.384;2023-12-20T02:03:48;2.05;;;1.85;;
3257;SDS011;1641;51.306;12.384;2023-12-20T02:06:14;2.08;;;1.75;;
3257;SDS011;1641;51.306;12.384;2023-12-20T02:08:41;3.35;;;1.70;;
3257;SDS011;1641;51.306;12.384;2023-12-20T02:11:06;2.22;;;1.75;;
3257;SDS011;1641;51.306;12.384;2023-12-20T02:13:31;2.03;;;1.83;;
3257;SDS011;1641;51.306;12.384;2023-12-20T02:15:57;2.80;;;1.90;;
3257;SDS011;1641;51.306;12.384;2023-12-20T02:18:22;2.75;;;1.45;;
3257;SDS011;1641;51.306;12.384;2023-12-20T02:20:48;2.88;;;1.58;;
3257;SDS011;1641;51.306;12.384;2023-12-20T02:23:13;1.83;;;1.60;;
3257;SDS011;1641;51.306;12.384;2023-12-20T02:25:38;3.60;;;1.75;;
3257;SDS011;1641;51.306;12.384;2023-12-20T02:28:04;2.08;;;1.88;;
3257;SDS011;1641;51.306;12.384;2023-12-20T02:30:30;2.08;;;1.88;;
3257;SDS011;1641;51.306;12.384;2023-12-20T02:32:55;1.95;;;1.60;;
3257;SDS011;1641;51.306;12.384;2023-12-20T02:35:21;1.52;;;1.42;;
3257;SDS011;1641;51.306;12.384;2023-12-20T02:37:46;1.98;;;1.77;;
3257;SDS011;1641;51.306;12.384;2023-12-20T02:40:11;1.75;;;1.52;;
3257;SDS011;1641;51.306;12.384;2023-12-20T02:42:37;3.97;;;1.98;;
3257;SDS011;1641;51.306;12.384;2023-12-20T02:45:02;2.33;;;1.52;;
3257;SDS011;1641;51.306;12.384;2023-12-20T02:47:28;1.65;;;1.40;;
3257;SDS011;1641;51.306;12.384;2023-12-20T02:49:55;1.90;;;1.70;;
3257;SDS011;1641;51.306;12.384;2023-12-20T02:52:20;2.03;;;1.70;;
3257;SDS011;1641;51.306;12.384;2023-12-20T02:54:47;1.77;;;1.55;;
3257;SDS011;1641;51.306;12.384;2023-12-20T02:57:15;1.70;;;1.52;;
3257;SDS011;1641;51.306;12.384;2023-12-20T02:59:40;1.40;;;1.30;;
3257;SDS011;1641;51.306;12.384;2023-12-20T03:02:05;2.63;;;1.83;;
3257;SDS011;1641;51.306;12.384;2023-12-20T03:04:31;1.70;;;1.52;;
3257;SDS011;1641;51.306;12.384;2023-12-20T03:06:57;1.95;;;1.75;;
3257;SDS011;1641;51.306;12.384;2023-12-20T03:09:22;2.38;;;1.73;;
3257;SDS011;1641;51.306;12.384;2023-12-20T03:11:54;1.60;;;1.50;;
3257;SDS011;1641;51.306;12.384;2023-12-20T03:14:19;1.77;;;1.67;;
3257;SDS011;1641;51.306;12.384;2023-12-20T03:16:50;1.85;;;1.75;;
3257;SDS011;1641;51.306;12.384;2023-12-20T03:19:17;1.83;;;1.63;;
3257;SDS011;1641;51.306;12.384;2023-12-20T03:21:43;1.98;;;1.67;;
3257;SDS011;1641;51.306;12.384;2023-12-20T03:24:09;1.90;;;1.60;;
3257;SDS011;1641;51.306;12.384;2023-12-20T03:26:37;2.22;;;1.80;;
3257;SDS011;1641;51.306;12.384;2023-12-20T03:29:02;1.80;;;1.58;;
3257;SDS011;1641;51.306;12.384;2023-12-20T03:31:30;1.65;;;1.55;;
3257;SDS011;1641;51.306;12.384;2023-12-20T03:33:55;1.63;;;1.52;;
3257;SDS011;1641;51.306;12.384;2023-12-20T03:36:21;2.08;;;1.73;;
3257;SDS011;1641;51.306;12.384;2023-12-20T03:38:46;1.85;;;1.70;;
3257;SDS011;1641;51.306;12.384;2023-12-20T03:41:11;2.28;;;2.08;;
3257;SDS011;1641;51.306;12.384;2023-12-20T03:43:36;2.03;;;1.67;;
3257;SDS011;1641;51.306;12.384;2023-12-20T03:46:02;2.17;;;1.98;;
3257;SDS011;1641;51.306;12.384;2023-12-20T03:48:31;2.38;;;1.88;;
3257;SDS011;1641;51.306;12.384;2023-12-20T03:50:57;3.00;;;2.13;;
3257;SDS011;1641;51.306;12.384;2023-12-20T03:53:22;3.47;;;1.85;;
3257;SDS011;1641;51.306;12.384;2023-12-20T03:55:47;3.25;;;2.10;;
3257;SDS011;1641;51.306;12.384;2023-12-20T03:58:13;2.60;;;2.40;;
3257;SDS011;1641;51.306;12.384;2023-12-20T04:00:38;3.22;;;2.45;;
3257;SDS011;1641;51.306;12.384;2023-12-20T04:03:03;2.13;;;1.83;;
3257;SDS011;1641;51.306;12.384;2023-12-20T04:05:32;3.47;;;2.78;;
3257;SDS011;1641;51.306;12.384;2023-12-20T04:07:57;2.63;;;2.13;;
3257;SDS011;1641;51.306;12.384;2023-12-20T04:10:24;2.90;;;2.55;;
3257;SDS011;1641;51.306;12.384;2023-12-20T04:12:50;3.22;;;2.90;;
3257;SDS011;1641;51.306;12.384;2023-12-20T04:15:15;2.70;;;2.50;;
3257;SDS011;1641;51.306;12.384;2023-12-20T04:17:40;3.05;;;2.75;;
3257;SDS011;1641;51.306;12.384;2023-12-20T04:20:06;3.80;;;2.80;;
3257;SDS011;1641;51.306;12.384;2023-12-20T04:22:34;3.83;;;3.20;;
3257;SDS011;1641;51.306;12.384;2023-12-20T04:25:03;4.75;;;3.60;;
3257;SDS011;1641;51.306;12.384;2023-12-20T04:27:28;3.17;;;2.88;;
3257;SDS011;1641;51.306;12.384;2023-12-20T04:29:56;3.42;;;3.00;;
3257;SDS011;1641;51.306;12.384;2023-12-20T04:32:22;3.90;;;3.45;;
3257;SDS011;1641;51.306;12.384;2023-12-20T04:34:47;3.58;;;3.08;;
3257;SDS011;1641;51.306;12.384;2023-12-20T04:37:12;3.95;;;3.50;;
3257;SDS011;1641;51.306;12.384;2023-12-20T04:39:37;5.03;;;3.40;;
3257;SDS011;1641;51.306;12.384;2023-12-20T04:42:03;4.15;;;3.75;;
3257;SDS011;1641;51.306;12.384;2023-12-20T04:44:37;3.85;;;3.03;;
3257;SDS011;1641;51.306;12.384;2023-12-20T04:47:03;5.40;;;3.65;;
3257;SDS011;1641;51.306;12.384;2023-12-20T04:49:28;4.68;;;3.53;;
3257;SDS011;1641;51.306;12.384;2023-12-20T04:51:53;4.47;;;3.95;;
3257;SDS011;1641;51.306;12.384;2023-12-20T04:54:21;5.50;;;3.92;;
3257;SDS011;1641;51.306;12.384;2023-12-20T04:56:50;5.28;;;4.22;;
3257;SDS011;1641;51.306;12.384;2023-12-20T04:59:15;4.43;;;3.28;;
3257;SDS011;1641;51.306;12.384;2023-12-20T05:01:40;4.90;;;4.40;;
3257;SDS011;1641;51.306;12.384;2023-12-20T05:04:06;5.30;;;3.85;;
3257;SDS011;1641;51.306;12.384;2023-12-20T05:06:31;4.65;;;4.25;;
3257;SDS011;1641;51.306;12.384;2023-12-20T05:08:59;5.60;;;4.63;;
3257;SDS011;1641;51.306;12.384;2023-12-20T05:11:24;6.78;;;4.85;;
3257;SDS011;1641;51.306;12.384;2023-12-20T05:13:50;6.95;;;4.85;;
3257;SDS011;1641;51.306;12.384;2023-12-20T05:16:15;5.43;;;4.93;;
3257;SDS011;1641;51.306;12.384;2023-12-20T05:18:42;8.90;;;5.22;;
3257;SDS011;1641;51.306;12.384;2023-12-20T05:21:08;7.35;;;4.78;;
3257;SDS011;1641;51.306;12.384;2023-12-20T05:23:33;5.43;;;4.28;;
3257;SDS011;1641;51.306;12.384;2023-12-20T05:25:58;7.70;;;5.88;;
3257;SDS011;1641;51.306;12.384;2023-12-20T05:28:24;6.30;;;5.13;;
3257;SDS011;1641;51.306;12.384;2023-12-20T05:30:49;7.88;;;5.80;;
3257;SDS011;1641;51.306;12.384;2023-12-20T05:33:17;7.05;;;5.15;;
3257;SDS011;1641;51.306;12.384;2023-12-20T05:35:42;6.57;;;5.35;;
3257;SDS011;1641;51.306;12.384;2023-12-20T05:38:08;5.95;;;5.22;;
3257;SDS011;1641;51.306;12.384;2023-12-20T05:40:33;6.68;;;5.22;;
3257;SDS011;1641;51.306;12.384;2023-12-20T05:42:58;5.78;;;5.10;;
3257;SDS011;1641;51.306;12.384;2023-12-20T05:45:24;5.82;;;5.20;;
3257;SDS011;1641;51.306;12.384;2023-12-20T05:47:49;6.82;;;5.43;;
3257;SDS011;1641;51.306;12.384;2023-12-20T05:50:14;7.72;;;4.75;;
3257;SDS011;1641;51.306;12.384;2023-12-20T05:52:40;6.40;;;5.63;;
3257;SDS011;1641;51.306;12.384;2023-12-20T05:55:06;6.70;;;5.47;;
3257;SDS011;1641;51.306;12.384;2023-12-20T05:57:31;7.25;;;5.70;;
3257;SDS011;1641;51.306;12.384;2023-12-20T05:59:57;7.03;;;5.55;;
3257;SDS011;1641;51.306;12.384;2023-12-20T06:02:22;7.55;;;5.43;;
3257;SDS011;1641;51.306;12.384;2023-12-20T06:04:48;7.72;;;5.82;;
3257;SDS011;1641;51.306;12.384;2023-12-20T06:07:13;7.70;;;6.10;;
3257;SDS011;1641;51.306;12.384;2023-12-20T06:09:39;7.75;;;5.97;;
3257;SDS011;1641;51.306;12.384;2023-12-20T06:12:04;6.82;;;5.13;;
3257;SDS011;1641;51.306;12.384;2023-12-20T06:14:30;7.07;;;5.32;;
3257;SDS011;1641;51.306;12.384;2023-12-20T06:16:55;10.10;;;6.10;;
3257;SDS011;1641;51.306;12.384;2023-12-20T06:19:21;8.50;;;6.47;;
3257;SDS011;1641;51.306;12.384;2023-12-20T06:21:47;9.60;;;6.80;;
3257;SDS011;1641;51.306;12.384;2023-12-20T06:24:12;8.95;;;6.07;;
3257;SDS011;1641;51.306;12.384;2023-12-20T06:26:37;8.68;;;6.32;;
3257;SDS011;1641;51.306;12.384;2023-12-20T06:29:03;6.97;;;5.03;;
3257;SDS011;1641;51.306;12.384;2023-12-20T06:31:28;9.70;;;6.13;;
3257;SDS011;1641;51.306;12.384;2023-12-20T06:33:54;12.52;;;6.13;;
3257;SDS011;1641;51.306;12.384;2023-12-20T06:36:22;8.32;;;5.65;;
3257;SDS011;1641;51.306;12.384;2023-12-20T06:38:48;7.10;;;5.18;;
3257;SDS011;1641;51.306;12.384;2023-12-20T06:41:13;6.68;;;4.63;;
3257;SDS011;1641;51.306;12.384;2023-12-20T06:43:39;9.70;;;5.07;;
3257;SDS011;1641;51.306;12.384;2023-12-20T06:46:05;8.43;;;5.03;;
3257;SDS011;1641;51.306;12.384;2023-12-20T06:48:31;6.35;;;4.80;;
3257;SDS011;1641;51.306;12.384;2023-12-20T06:50:56;7.28;;;5.07;;
3257;SDS011;1641;51.306;12.384;2023-12-20T06:53:21;6.50;;;4.80;;
3257;SDS011;1641;51.306;12.384;2023-12-20T06:55:46;7.15;;;5.40;;
3257;SDS011;1641;51.306;12.384;2023-12-20T06:58:12;6.00;;;5.07;;
3257;SDS011;1641;51.306;12.384;2023-12-20T07:00:37;7.93;;;5.63;;
3257;SDS011;1641;51.306;12.384;2023-12-20T07:03:03;6.70;;;4.43;;
3257;SDS011;1641;51.306;12.384;2023-12-20T07:05:28;7.72;;;4.90;;
3257;SDS011;1641;51.306;12.384;2023-12-20T07:07:53;6.30;;;5.00;;
3257;SDS011;1641;51.306;12.384;2023-12-20T07:10:19;8.05;;;4.90;;
3257;SDS011;1641;51.306;12.384;2023-12-20T07:12:44;6.30;;;4.65;;
3257;SDS011;1641;51.306;12.384;2023-12-20T07:15:09;6.88;;;4.38;;
3257;SDS011;1641;51.306;12.384;2023-12-20T07:17:35;7.43;;;4.07;;
3257;SDS011;1641;51.306;12.384;2023-12-20T07:20:00;6.82;;;5.18;;
3257;SDS011;1641;51.306;12.384;2023-12-20T07:22:29;9.52;;;4.90;;
3257;SDS011;1641;51.306;12.384;2023-12-20T07:24:56;7.22;;;4.50;;
3257;SDS011;1641;51.306;12.384;2023-12-20T07:27:21;6.10;;;3.97;;
3257;SDS011;1641;51.306;12.384;2023-12-20T07:29:47;5.43;;;3.30;;
3257;SDS011;1641;51.306;12.384;2023-12-20T07:32:12;5.78;;;3.17;;
3257;SDS011;1641;51.306;12.384;2023-12-20T07:34:37;11.50;;;4.78;;
3257;SDS011;1641;51.306;12.384;2023-12-20T07:37:02;7.05;;;2.88;;
3257;SDS011;1641;51.306;12.384;2023-12-20T07:39:28;9.30;;;3.15;;
3257;SDS011;1641;51.306;12.384;2023-12-20T07:41:54;10.48;;;2.88;;
3257;SDS011;1641;51.306;12.384;2023-12-20T07:44:19;5.25;;;2.72;;
3257;SDS011;1641;51.306;12.384;2023-12-20T07:46:47;3.58;;;2.97;;
3257;SDS011;1641;51.306;12.384;2023-12-20T07:49:13;10.52;;;2.65;;
3257;SDS011;1641;51.306;12.384;2023-12-20T07:51:39;4.57;;;3.03;;
3257;SDS011;1641;51.306;12.384;2023-12-20T07:54:04;4.28;;;2.67;;
3257;SDS011;1641;51.306;12.384;2023-12-20T07:56:29;2.60;;;2.35;;
3257;SDS011;1641;51.306;12.384;2023-12-20T07:58:55;3.25;;;1.83;;
3257;SDS011;1641;51.306;12.384;2023-12-20T08:01:20;7.57;;;2.65;;
3257;SDS011;1641;51.306;12.384;2023-12-20T08:03:45;5.07;;;1.95;;
3257;SDS011;1641;51.306;12.384;2023-12-20T08:06:11;4.60;;;1.70;;
3257;SDS011;1641;51.306;12.384;2023-12-20T08:08:36;5.88;;;2.08;;
3257;SDS011;1641;51.306;12.384;2023-12-20T08:11:02;7.32;;;4.03;;
3257;SDS011;1641;51.306;12.384;2023-12-20T08:13:27;4.68;;;1.98;;
3257;SDS011;1641;51.306;12.384;2023-12-20T08:15:53;6.28;;;2.80;;
3257;SDS011;1641;51.306;12.384;2023-12-20T08:18:19;6.40;;;2.13;;
3257;SDS011;1641;51.306;12.384;2023-12-20T08:20:44;7.32;;;4.28;;
3257;SDS011;1641;51.306;12.384;2023-12-20T08:23:09;4.47;;;2.22;;
3257;SDS011;1641;51.306;12.384;2023-12-20T08:25:35;4.30;;;1.88;;
3257;SDS011;1641;51.306;12.384;2023-12-20T08:28:01;4.75;;;1.70;;
3257;SDS011;1641;51.306;12.384;2023-12-20T08:30:27;8.65;;;1.55;;
3257;SDS011;1641;51.306;12.384;2023-12-20T08:32:53;2.35;;;1.60;;
3257;SDS011;1641;51.306;12.384;2023-12-20T08:35:18;2.55;;;1.88;;
3257;SDS011;1641;51.306;12.384;2023-12-20T08:37:47;4.47;;;1.85;;
3257;SDS011;1641;51.306;12.384;2023-12-20T08:40:12;4.95;;;2.40;;
3257;SDS011;1641;51.306;12.384;2023-12-20T08:42:38;4.88;;;1.80;;
3257;SDS011;1641;51.306;12.384;2023-12-20T08:45:04;3.70;;;2.05;;
3257;SDS011;1641;51.306;12.384;2023-12-20T08:47:36;3.85;;;1.80;;
3257;SDS011;1641;51.306;12.384;2023-12-20T08:50:02;2.50;;;1.60;;
3257;SDS011;1641;51.306;12.384;2023-12-20T08:52:27;8.05;;;1.73;;
3257;SDS011;1641;51.306;12.384;2023-12-20T08:54:54;5.50;;;3.50;;
3257;SDS011;1641;51.306;12.384;2023-12-20T08:57:19;3.42;;;2.25;;
3257;SDS011;1641;51.306;12.384;2023-12-20T08:59:49;5.75;;;1.80;;
3257;SDS011;1641;51.306;12.384;2023-12-20T09:02:15;3.15;;;1.58;;
3257;SDS011;1641;51.306;12.384;2023-12-20T09:04:41;3.85;;;1.85;;
3257;SDS011;1641;51.306;12.384;2023-12-20T09:07:06;4.43;;;1.88;;
3257;SDS011;1641;51.306;12.384;2023-12-20T09:09:32;4.82;;;2.10;;
3257;SDS011;1641;51.306;12.384;2023-12-20T09:12:01;5.25;;;2.30;;
3257;SDS011;1641;51.306;12.384;2023-12-20T09:14:26;6.38;;;2.35;;
3257;SDS011;1641;51.306;12.384;2023-12-20T09:16:51;5.70;;;1.75;;
3257;SDS011;1641;51.306;12.384;2023-12-20T09:19:17;4.03;;;1.98;;
3257;SDS011;1641;51.306;12.384;2023-12-20T09:21:42;6.35;;;2.25;;
3257;SDS011;1641;51.306;12.384;2023-12-20T09:24:08;5.03;;;2.28;;
3257;SDS011;1641;51.306;12.384;2023-12-20T09:26:33;5.95;;;2.50;;
3257;SDS011;1641;51.306;12.384;2023-12-20T09:28:59;5.50;;;3.85;;
3257;SDS011;1641;51.306;12.384;2023-12-20T09:31:24;4.97;;;2.75;;
3257;SDS011;1641;51.306;12.384;2023-12-20T09:33:50;4.10;;;2.20;;
3257;SDS011;1641;51.306;12.384;2023-12-20T09:36:15;7.45;;;2.78;;
3257;SDS011;1641;51.306;12.384;2023-12-20T09:38:40;6.40;;;2.15;;
3257;SDS011;1641;51.306;12.384;2023-12-20T09:41:05;4.20;;;1.70;;
3257;SDS011;1641;51.306;12.384;2023-12-20T09:43:31;4.88;;;2.03;;
3257;SDS011;1641;51.306;12.384;2023-12-20T09:46:00;3.45;;;1.70;;
3257;SDS011;1641;51.306;12.384;2023-12-20T09:48:27;7.38;;;2.50;;
3257;SDS011;1641;51.306;12.384;2023-12-20T09:50:52;4.82;;;1.67;;
3257;SDS011;1641;51.306;12.384;2023-12-20T09:53:18;3.17;;;2.03;;
3257;SDS011;1641;51.306;12.384;2023-12-20T09:55:45;3.80;;;2.08;;
3257;SDS011;1641;51.306;12.384;2023-12-20T09:58:10;3.33;;;2.45;;
3257;SDS011;1641;51.306;12.384;2023-12-20T10:00:35;5.53;;;2.50;;
3257;SDS011;1641;51.306;12.384;2023-12-20T10:03:00;8.60;;;2.05;;
3257;SDS011;1641;51.306;12.384;2023-12-20T10:05:27;6.20;;;2.20;;
3257;SDS011;1641;51.306;12.384;2023-12-20T10:07:56;5.90;;;1.95;;
3257;SDS011;1641;51.306;12.384;2023-12-20T10:10:22;4.07;;;1.88;;
3257;SDS011;1641;51.306;12.384;2023-12-20T10:13:04;6.80;;;2.55;;
3257;SDS011;1641;51.306;12.384;2023-12-20T10:15:30;4.85;;;2.20;;
3257;SDS011;1641;51.306;12.384;2023-12-20T10:17:57;4.57;;;2.40;;
3257;SDS011;1641;51.306;12.384;2023-12-20T10:20:22;3.60;;;2.28;;
3257;SDS011;1641;51.306;12.384;2023-12-20T10:22:47;3.28;;;2.50;;
3257;SDS011;1641;51.306;12.384;2023-12-20T10:25:13;7.43;;;2.85;;
3257;SDS011;1641;51.306;12.384;2023-12-20T10:27:39;4.70;;;2.25;;
3257;SDS011;1641;51.306;12.384;2023-12-20T10:30:04;4.60;;;2.38;;
3257;SDS011;1641;51.306;12.384;2023-12-20T10:32:30;7.68;;;2.42;;
3257;SDS011;1641;51.306;12.384;2023-12-20T10:34:56;6.25;;;2.83;;
3257;SDS011;1641;51.306;12.384;2023-12-20T10:37:21;5.53;;;2.15;;
3257;SDS011;1641;51.306;12.384;2023-12-20T10:39:49;3.53;;;2.10;;
3257;SDS011;1641;51.306;12.384;2023-12-20T10:42:15;5.25;;;2.45;;
3257;SDS011;1641;51.306;12.384;2023-12-20T10:44:42;6.15;;;2.90;;
3257;SDS011;1641;51.306;12.384;2023-12-20T10:47:08;8.77;;;2.28;;
3257;SDS011;1641;51.306;12.384;2023-12-20T10:49:36;9.45;;;2.30;;
3257;SDS011;1641;51.306;12.384;2023-12-20T10:52:02;6.57;;;2.00;;
3257;SDS011;1641;51.306;12.384;2023-12-20T10:54:29;4.53;;;2.40;;
3257;SDS011;1641;51.306;12.384;2023-12-20T10:56:54;3.33;;;2.03;;
3257;SDS011;1641;51.306;12.384;2023-12-20T10:59:22;3.60;;;1.42;;
3257;SDS011;1641;51.306;12.384;2023-12-20T11:01:49;7.03;;;2.05;;
3257;SDS011;1641;51.306;12.384;2023-12-20T11:04:15;3.05;;;1.75;;
3257;SDS011;1641;51.306;12.384;2023-12-20T11:06:52;4.78;;;1.77;;
3257;SDS011;1641;51.306;12.384;2023-12-20T11:09:22;5.50;;;1.65;;
3257;SDS011;1641;51.306;12.384;2023-12-20T11:14:23;7.20;;;1.60;;
3257;SDS011;1641;51.306;12.384;2023-12-20T11:16:50;4.15;;;1.60;;
3257;SDS011;1641;51.306;12.384;2023-12-20T11:19:16;8.38;;;4.25;;
3257;SDS011;1641;51.306;12.384;2023-12-20T11:21:41;4.63;;;1.48;;
3257;SDS011;1641;51.306;12.384;2023-12-20T11:24:07;3.70;;;1.55;;
3257;SDS011;1641;51.306;12.384;2023-12-20T11:26:33;4.45;;;1.27;;
3257;SDS011;1641;51.306;12.384;2023-12-20T11:31:55;5.40;;;1.67;;
3257;SDS011;1641;51.306;12.384;2023-12-20T11:34:21;4.60;;;2.03;;
3257;SDS011;1641;51.306;12.384;2023-12-20T11:36:46;5.03;;;1.67;;
3257;SDS011;1641;51.306;12.384;2023-12-20T11:39:11;7.75;;;3.08;;
3257;SDS011;1641;51.306;12.384;2023-12-20T11:41:38;5.45;;;1.83;;
3257;SDS011;1641;51.306;12.384;2023-12-20T11:44:04;5.47;;;2.45;;
3257;SDS011;1641;51.306;12.384;2023-12-20T11:46:29;4.32;;;1.73;;
3257;SDS011;1641;51.306;12.384;2023-12-20T11:48:56;5.88;;;2.08;;
3257;SDS011;1641;51.306;12.384;2023-12-20T11:51:21;8.65;;;1.67;;
3257;SDS011;1641;51.306;12.384;2023-12-20T11:53:50;7.38;;;2.08;;
3257;SDS011;1641;51.306;12.384;2023-12-20T11:56:16;5.82;;;2.00;;
3257;SDS011;1641;51.306;12.384;2023-12-20T11:58:42;5.65;;;1.60;;
3257;SDS011;1641;51.306;12.384;2023-12-20T12:01:08;9.30;;;2.30;;
3257;SDS011;1641;51.306;12.384;2023-12-20T12:03:33;5.82;;;2.05;;
3257;SDS011;1641;51.306;12.384;2023-12-20T12:05:58;5.80;;;1.70;;
3257;SDS011;1641;51.306;12.384;2023-12-20T12:08:25;2.78;;;1.85;;
3257;SDS011;1641;51.306;12.384;2023-12-20T12:10:51;3.95;;;1.42;;
3257;SDS011;1641;51.306;12.384;2023-12-20T12:13:16;4.00;;;1.75;;
3257;SDS011;1641;51.306;12.384;2023-12-20T12:15:41;5.68;;;1.92;;
3257;SDS011;1641;51.306;12.384;2023-12-20T12:18:07;10.05;;;2.13;;
3257;SDS011;1641;51.306;12.384;2023-12-20T12:20:32;6.75;;;1.77;;
3257;SDS011;1641;51.306;12.384;2023-12-20T12:22:58;10.13;;;2.65;;
3257;SDS011;1641;51.306;12.384;2023-12-20T12:25:24;6.53;;;1.73;;
3257;SDS011;1641;51.306;12.384;2023-12-20T12:27:50;6.95;;;2.83;;
3257;SDS011;1641;51.306;12.384;2023-12-20T12:30:16;4.60;;;2.25;;
3257;SDS011;1641;51.306;12.384;2023-12-20T12:32:43;3.35;;;1.73;;
3257;SDS011;1641;51.306;12.384;2023-12-20T12:35:09;4.55;;;1.85;;
3257;SDS011;1641;51.306;12.384;2023-12-20T12:37:35;4.05;;;1.70;;
3257;SDS011;1641;51.306;12.384;2023-12-20T12:40:04;3.58;;;1.83;;
3257;SDS011;1641;51.306;12.384;2023-12-20T12:42:30;5.75;;;2.90;;
3257;SDS011;1641;51.306;12.384;2023-12-20T12:44:55;4.03;;;1.60;;
3257;SDS011;1641;51.306;12.384;2023-12-20T12:47:23;1.98;;;1.35;;
3257;SDS011;1641;51.306;12.384;2023-12-20T12:49:49;4.50;;;1.73;;
3257;SDS011;1641;51.306;12.384;2023-12-20T12:52:17;10.80;;;4.20;;
3257;SDS011;1641;51.306;12.384;2023-12-20T12:54:42;5.45;;;1.83;;
3257;SDS011;1641;51.306;12.384;2023-12-20T12:57:09;4.90;;;1.88;;
3257;SDS011;1641;51.306;12.384;2023-12-20T12:59:35;6.38;;;2.35;;
3257;SDS011;1641;51.306;12.384;2023-12-20T13:02:00;3.85;;;2.05;;
3257;SDS011;1641;51.306;12.384;2023-12-20T13:04:25;4.28;;;1.77;;
3257;SDS011;1641;51.306;12.384;2023-12-20T13:06:50;7.25;;;2.63;;
3257;SDS011;1641;51.306;12.384;2023-12-20T13:09:16;6.82;;;2.45;;
3257;SDS011;1641;51.306;12.384;2023-12-20T13:11:41;4.45;;;1.88;;
3257;SDS011;1641;51.306;12.384;2023-12-20T13:14:06;3.15;;;1.50;;
3257;SDS011;1641;51.306;12.384;2023-12-20T13:16:35;8.43;;;3.67;;
3257;SDS011;1641;51.306;12.384;2023-12-20T13:19:00;12.25;;;3.13;;
3257;SDS011;1641;51.306;12.384;2023-12-20T13:21:26;3.97;;;1.90;;
3257;SDS011;1641;51.306;12.384;2023-12-20T13:23:51;5.68;;;2.33;;
3257;SDS011;1641;51.306;12.384;2023-12-20T13:26:17;5.47;;;2.30;;
3257;SDS011;1641;51.306;12.384;2023-12-20T13:28:42;4.95;;;1.58;;
3257;SDS011;1641;51.306;12.384;2023-12-20T13:31:07;4.20;;;1.58;;
3257;SDS011;1641;51.306;12.384;2023-12-20T13:33:33;4.00;;;1.90;;
3257;SDS011;1641;51.306;12.384;2023-12-20T13:35:58;2.17;;;1.25;;
3257;SDS011;1641;51.306;12.384;2023-12-20T13:38:24;2.83;;;1.40;;
3257;SDS011;1641;51.306;12.384;2023-12-20T13:40:50;4.88;;;1.63;;
3257;SDS011;1641;51.306;12.384;2023-12-20T13:43:15;4.22;;;2.00;;
3257;SDS011;1641;51.306;12.384;2023-12-20T13:45:45;8.48;;;1.98;;
3257;SDS011;1641;51.306;12.384;2023-12-20T13:48:10;3.33;;;1.30;;
3257;SDS011;1641;51.306;12.384;2023-12-20T13:50:36;5.97;;;1.67;;
3257;SDS011;1641;51.306;12.384;2023-12-20T13:53:01;6.30;;;2.33;;
3257;SDS011;1641;51.306;12.384;2023-12-20T13:55:29;4.10;;;1.45;;
3257;SDS011;1641;51.306;12.384;2023-12-20T13:57:54;6.82;;;1.65;;
3257;SDS011;1641;51.306;12.384;2023-12-20T14:00:19;3.40;;;1.42;;
3257;SDS011;1641;51.306;12.384;2023-12-20T14:02:45;5.45;;;1.73;;
3257;SDS011;1641;51.306;12.384;2023-12-20T14:05:11;2.60;;;1.45;;
3257;SDS011;1641;51.306;12.384;2023-12-20T14:07:38;5.40;;;1.83;;
3257;SDS011;1641;51.306;12.384;2023-12-20T14:10:03;4.30;;;1.83;;
3257;SDS011;1641;51.306;12.384;2023-12-20T14:12:30;5.43;;;1.33;;
3257;SDS011;1641;51.306;12.384;2023-12-20T14:14:57;4.18;;;1.48;;
3257;SDS011;1641;51.306;12.384;2023-12-20T14:17:22;4.85;;;1.75;;
3257;SDS011;1641;51.306;12.384;2023-12-20T14:19:47;2.05;;;1.20;;
3257;SDS011;1641;51.306;12.384;2023-12-20T14:22:13;2.92;;;1.50;;
3257;SDS011;1641;51.306;12.384;2023-12-20T14:24:41;2.90;;;1.50;;
3257;SDS011;1641;51.306;12.384;2023-12-20T14:27:07;2.83;;;1.13;;
3257;SDS011;1641;51.306;12.384;2023-12-20T14:29:34;2.50;;;1.33;;
3257;SDS011;1641;51.306;12.384;2023-12-20T14:31:59;3.65;;;1.35;;
3257;SDS011;1641;51.306;12.384;2023-12-20T14:34:26;3.42;;;1.60;;
3257;SDS011;1641;51.306;12.384;2023-12-20T14:36:51;6.10;;;2.00;;
3257;SDS011;1641;51.306;12.384;2023-12-20T14:39:17;1.90;;;1.27;;
3257;SDS011;1641;51.306;12.384;2023-12-20T14:41:43;3.80;;;1.38;;
3257;SDS011;1641;51.306;12.384;2023-12-20T14:44:08;1.92;;;1.38;;
3257;SDS011;1641;51.306;12.384;2023-12-20T14:46:33;2.35;;;1.50;;
3257;SDS011;1641;51.306;12.384;2023-12-20T14:48:58;2.05;;;1.38;;
3257;SDS011;1641;51.306;12.384;2023-12-20T14:51:26;2.90;;;1.52;;
3257;SDS011;1641;51.306;12.384;2023-12-20T14:53:52;2.60;;;1.35;;
3257;SDS011;1641;51.306;12.384;2023-12-20T14:56:17;2.85;;;1.23;;
3257;SDS011;1641;51.306;12.384;2023-12-20T14:58:42;2.53;;;1.38;;